createdAt,value
2022-10-13T00:11:44.909Z,13.38
2022-10-13T00:26:46.696Z,13.16
2022-10-13T00:41:48.490Z,13.00
2022-10-13T00:56:51.674Z,12.77
2022-10-13T01:12:20.864Z,12.82
2022-10-13T01:27:38.272Z,12.72
2022-10-13T01:42:56.967Z,12.59
2022-10-13T01:57:58.750Z,12.47
2022-10-13T02:13:03.875Z,12.31
2022-10-13T02:28:06.754Z,12.19
2022-10-13T02:43:08.636Z,12.11
2022-10-13T02:58:10.393Z,11.93
2022-10-13T03:13:12.252Z,11.73
2022-10-13T03:28:14.235Z,11.56
2022-10-13T03:43:16.042Z,11.45
2022-10-13T03:58:18.622Z,11.22
2022-10-13T04:13:20.516Z,11.28
2022-10-13T04:28:22.352Z,11.21
2022-10-13T04:43:24.263Z,11.44
2022-10-13T04:58:26.087Z,12.01
2022-10-13T05:13:29.915Z,12.79
2022-10-13T05:28:31.941Z,13.86
2022-10-13T05:43:34.617Z,15.44
2022-10-13T05:58:40.983Z,16.94
2022-10-13T06:13:42.864Z,18.03
2022-10-13T06:28:49.738Z,18.97
2022-10-13T06:43:52.407Z,19.99
2022-10-13T06:58:54.196Z,20.94
2022-10-13T07:13:56.214Z,21.79
2022-10-13T07:28:58.237Z,22.74
2022-10-13T07:44:00.165Z,23.44
2022-10-13T07:59:02.574Z,24.05
2022-10-13T08:14:05.171Z,24.51
2022-10-13T08:29:21.474Z,24.84
2022-10-13T09:00:01.149Z,24.77
2022-10-13T09:15:10.307Z,25.24
2022-10-13T09:30:28.431Z,23.13
2022-10-13T09:45:32.310Z,25.43
2022-10-13T10:00:34.992Z,22.40
2022-10-13T10:16:10.961Z,22.51
2022-10-13T10:31:54.735Z,22.56
2022-10-13T10:47:03.048Z,21.90
2022-10-13T11:02:07.898Z,22.74
2022-10-13T11:17:17.122Z,22.19
2022-10-13T11:32:27.781Z,23.54
2022-10-13T11:48:00.957Z,21.55
2022-10-13T12:03:02.840Z,22.64
2022-10-13T12:18:34.567Z,20.82
2022-10-13T12:33:36.423Z,19.99
2022-10-13T12:48:40.912Z,19.26
2022-10-13T13:03:43.913Z,19.01
2022-10-13T13:18:50.718Z,18.62
2022-10-13T13:33:53.101Z,18.33
2022-10-13T13:48:54.905Z,17.97
2022-10-13T14:03:56.712Z,17.91
2022-10-13T14:18:58.869Z,17.81
2022-10-13T14:34:00.652Z,17.52
2022-10-13T14:49:02.472Z,17.18
2022-10-13T15:04:05.025Z,16.74
2022-10-13T15:19:06.856Z,16.23
2022-10-13T15:34:08.647Z,15.86
2022-10-13T15:49:10.404Z,15.61
2022-10-13T16:04:12.135Z,15.21
2022-10-13T16:19:14.349Z,14.95
2022-10-13T16:34:16.364Z,14.61
2022-10-13T16:49:18.394Z,14.46
2022-10-13T17:04:22.290Z,14.46
2022-10-13T17:19:24.275Z,14.26
2022-10-13T17:34:26.056Z,14.13
2022-10-13T17:49:28.001Z,13.98
2022-10-13T18:04:30.048Z,13.80
2022-10-13T18:19:35.388Z,13.67
2022-10-13T18:34:39.628Z,13.41
2022-10-13T18:49:41.407Z,13.25
2022-10-13T19:04:43.196Z,13.17
2022-10-13T19:19:46.467Z,13.09
2022-10-13T19:34:48.284Z,12.97
2022-10-13T19:49:50.022Z,12.77
2022-10-13T20:04:52.215Z,12.62
2022-10-13T20:19:54.042Z,12.48
2022-10-13T20:34:55.775Z,12.46
2022-10-13T20:49:57.631Z,12.42
2022-10-13T21:04:59.452Z,12.16
2022-10-13T21:20:01.402Z,11.91
2022-10-13T21:35:03.386Z,11.87
2022-10-13T21:50:05.746Z,11.70
2022-10-13T22:05:07.888Z,11.77
2022-10-13T22:20:09.888Z,11.73
2022-10-13T22:35:11.676Z,11.57
2022-10-13T22:50:13.504Z,11.40
2022-10-13T23:05:15.355Z,11.14
2022-10-13T23:20:17.289Z,10.89
2022-10-13T23:35:19.143Z,10.67
2022-10-13T23:50:20.923Z,10.49
